Time,TemperatureF,DewpointF,PressureIn,WindDirection,WindDirectionDegrees,WindSpeedMPH,WindSpeedGustMPH,Humidity,HourlyPrecipIn,Conditions,Clouds,dailyrainin,SolarRadiationWatts/m^2,SoftwareType,DateUTC
2013-02-26 00:00:00,32.0,30.7,29.51,NNE,25,5.0,8.0,95,0.01,,,0.00,0.00,VWS V14.01,2013-02-26 06:00:00,
2013-02-26 00:05:00,32.0,30.7,29.51,North,360,4.0,6.0,95,0.01,,,0.00,0.00,VWS V14.01,2013-02-26 06:05:00,
2013-02-26 00:10:00,32.0,30.7,29.51,NNE,20,4.0,4.0,95,0.01,,,0.00,0.00,VWS V14.01,2013-02-26 06:10:00,
2013-02-26 00:15:00,31.9,30.6,29.52,North,360,6.0,6.0,95,0.01,,,0.00,0.00,VWS V14.01,2013-02-26 06:15:00,
2013-02-26 00:20:00,31.9,30.6,29.52,North,355,3.0,3.0,95,0.01,,,0.00,0.00,VWS V14.01,2013-02-26 06:20:00,
2013-02-26 00:25:00,31.9,30.9,29.52,NNW,348,5.0,5.0,96,0.00,,,0.00,0.00,VWS V14.01,2013-02-26 06:25:00,
2013-02-26 00:30:00,31.9,30.6,29.52,North,355,3.0,5.0,95,0.00,,,0.00,0.00,VWS V14.01,2013-02-26 06:30:00,
2013-02-26 00:35:00,31.9,30.6,29.52,NNE,19,2.0,6.0,95,0.00,,,0.00,0.00,VWS V14.01,2013-02-26 06:35:00,
2013-02-26 00:40:00,31.7,30.4,29.52,North,355,4.0,7.0,95,0.00,,,0.00,0.00,VWS V14.01,2013-02-26 06:40:00,
2013-02-26 00:45:00,31.7,30.4,29.52,North,355,3.0,3.0,95,0.00,,,0.00,0.00,VWS V14.01,2013-02-26 06:45:00,
2013-02-26 00:50:00,31.6,30.6,29.52,North,355,1.0,2.0,96,0.00,,,0.00,0.00,VWS V14.01,2013-02-26 06:50:00,
2013-02-26 00:55:00,31.6,30.6,29.52,NNW,343,3.0,5.0,96,0.00,,,0.00,0.00,VWS V14.01,2013-02-26 06:55:00,
2013-02-26 01:00:00,31.6,30.6,29.52,North,360,4.0,5.0,96,0.00,,,0.00,0.00,VWS V14.01,2013-02-26 07:00:00,
2013-02-26 01:05:00,31.6,30.6,29.52,North,351,2.0,4.0,96,0.00,,,0.00,0.00,VWS V14.01,2013-02-26 07:05:00,
2013-02-26 01:10:00,31.6,30.6,29.52,North,360,2.0,2.0,96,0.00,,,0.00,0.00,VWS V14.01,2013-02-26 07:10:00,
2013-02-26 01:15:00,31.7,30.7,29.53,North,355,2.0,4.0,96,0.01,,,0.01,0.00,VWS V14.01,2013-02-26 07:15:00,
2013-02-26 01:20:00,31.7,30.7,29.53,NNW,348,4.0,4.0,96,0.01,,,0.01,0.00,VWS V14.01,2013-02-26 07:20:00,
2013-02-26 01:25:00,31.7,30.7,29.53,North,351,4.0,4.0,96,0.01,,,0.01,0.00,VWS V14.01,2013-02-26 07:25:00,
2013-02-26 01:30:00,31.7,30.7,29.53,NE,37,7.0,7.0,96,0.01,,,0.01,0.00,VWS V14.01,2013-02-26 07:30:00,
2013-02-26 01:35:00,31.7,30.7,29.53,North,5,4.0,5.0,96,0.01,,,0.01,0.00,VWS V14.01,2013-02-26 07:35:00,
2013-02-26 01:40:00,31.7,30.7,29.53,NNW,344,4.0,7.0,96,0.01,,,0.01,0.00,VWS V14.01,2013-02-26 07:40:00,
2013-02-26 01:45:00,31.7,30.7,29.53,North,10,3.0,4.0,96,0.01,,,0.01,0.00,VWS V14.01,2013-02-26 07:45:00,
2013-02-26 01:50:00,31.6,30.6,29.53,North,349,4.0,5.0,96,0.01,,,0.01,0.00,VWS V14.01,2013-02-26 07:50:00,
2013-02-26 01:55:00,31.7,30.7,29.53,North,350,4.0,4.0,96,0.01,,,0.01,0.00,VWS V14.01,2013-02-26 07:55:00,
2013-02-26 02:00:00,31.7,30.7,29.54,North,360,6.0,6.0,96,0.01,,,0.01,0.00,VWS V14.01,2013-02-26 08:00:00,
2013-02-26 02:05:00,31.7,30.7,29.54,NNW,348,6.0,6.0,96,0.02,,,0.02,0.00,VWS V14.01,2013-02-26 08:05:00,
2013-02-26 02:10:00,31.9,30.9,29.54,North,355,3.0,5.0,96,0.02,,,0.02,0.00,VWS V14.01,2013-02-26 08:10:00,
2013-02-26 02:15:00,31.9,30.9,29.54,North,9,0.0,0.0,96,0.01,,,0.02,0.00,VWS V14.01,2013-02-26 08:15:00,
2013-02-26 02:20:00,31.9,30.9,29.54,NNW,348,2.0,3.0,96,0.01,,,0.02,0.00,VWS V14.01,2013-02-26 08:20:00,
2013-02-26 02:25:00,32.0,31.0,29.54,NNW,348,4.0,5.0,96,0.01,,,0.02,0.00,VWS V14.01,2013-02-26 08:25:00,
2013-02-26 02:30:00,32.0,31.0,29.54,North,351,6.0,11.0,96,0.01,,,0.02,0.00,VWS V14.01,2013-02-26 08:30:00,
2013-02-26 02:35:00,32.0,31.0,29.54,NNE,20,3.0,4.0,96,0.01,,,0.02,0.00,VWS V14.01,2013-02-26 08:35:00,
2013-02-26 02:40:00,32.0,31.0,29.54,NNE,32,3.0,7.0,96,0.01,,,0.02,0.00,VWS V14.01,2013-02-26 08:40:00,
2013-02-26 02:45:00,32.0,31.0,29.54,NNW,341,2.0,3.0,96,0.01,,,0.02,0.00,VWS V14.01,2013-02-26 08:45:00,
2013-02-26 02:50:00,31.9,30.9,29.54,North,5,8.0,8.0,96,0.02,,,0.03,0.00,VWS V14.01,2013-02-26 08:50:00,
2013-02-26 02:55:00,31.9,30.9,29.54,North,355,3.0,8.0,96,0.02,,,0.03,0.00,VWS V14.01,2013-02-26 08:55:00,
2013-02-26 03:00:00,32.0,31.0,29.55,NNW,344,4.0,7.0,96,0.02,,,0.03,0.00,VWS V14.01,2013-02-26 09:00:00,
2013-02-26 03:05:00,32.0,31.0,29.55,NNW,343,2.0,13.0,96,0.02,,,0.03,0.00,VWS V14.01,2013-02-26 09:05:00,
2013-02-26 03:10:00,32.0,31.0,29.55,North,355,2.0,9.0,96,0.02,,,0.04,0.00,VWS V14.01,2013-02-26 09:10:00,
2013-02-26 03:15:00,32.0,31.0,29.55,NNW,338,5.0,7.0,96,0.02,,,0.04,0.00,VWS V14.01,2013-02-26 09:15:00,
2013-02-26 03:20:00,32.0,31.0,29.55,NW,325,2.0,8.0,96,0.02,,,0.04,0.00,VWS V14.01,2013-02-26 09:20:00,
2013-02-26 03:25:00,31.9,30.9,29.55,NNW,337,2.0,6.0,96,0.02,,,0.04,0.00,VWS V14.01,2013-02-26 09:25:00,
2013-02-26 03:30:00,31.9,30.9,29.55,North,350,2.0,6.0,96,0.02,,,0.04,0.00,VWS V14.01,2013-02-26 09:30:00,
2013-02-26 03:35:00,31.9,30.9,29.55,NNW,347,4.0,7.0,96,0.02,,,0.04,0.00,VWS V14.01,2013-02-26 09:35:00,
2013-02-26 03:40:00,31.9,30.9,29.55,NNW,344,2.0,9.0,96,0.02,,,0.04,0.00,VWS V14.01,2013-02-26 09:40:00,
2013-02-26 03:45:00,31.9,30.9,29.56,NNW,333,5.0,10.0,96,0.02,,,0.04,0.00,VWS V14.01,2013-02-26 09:45:00,
2013-02-26 03:50:00,32.0,31.0,29.56,NNW,334,4.0,10.0,96,0.03,,,0.05,0.00,VWS V14.01,2013-02-26 09:50:00,
2013-02-26 03:55:00,32.2,31.2,29.56,NNW,330,3.0,7.0,96,0.02,,,0.05,0.00,VWS V14.01,2013-02-26 09:55:00,
2013-02-26 04:00:00,32.3,31.3,29.56,NW,325,3.0,9.0,96,0.02,,,0.05,0.00,VWS V14.01,2013-02-26 10:00:00,
2013-02-26 04:05:00,32.5,31.5,29.56,NNW,332,0.0,10.0,96,0.02,,,0.05,0.00,VWS V14.01,2013-02-26 10:05:00,
2013-02-26 04:10:00,32.5,31.5,29.56,NNW,339,4.0,7.0,96,0.03,,,0.06,0.00,VWS V14.01,2013-02-26 10:10:00,
2013-02-26 04:15:00,32.6,31.6,29.56,NNW,339,3.0,12.0,96,0.02,,,0.06,0.00,VWS V14.01,2013-02-26 10:15:00,
2013-02-26 04:20:00,32.6,31.6,29.56,North,350,4.0,12.0,96,0.02,,,0.06,0.00,VWS V14.01,2013-02-26 10:20:00,
2013-02-26 04:25:00,32.8,31.8,29.56,NW,317,6.0,11.0,96,0.02,,,0.06,0.00,VWS V14.01,2013-02-26 10:25:00,
2013-02-26 04:30:00,32.9,31.9,29.57,NW,304,5.0,9.0,96,0.02,,,0.06,0.00,VWS V14.01,2013-02-26 10:30:00,
2013-02-26 04:35:00,32.9,31.9,29.57,NW,324,4.0,13.0,96,0.03,,,0.07,0.00,VWS V14.01,2013-02-26 10:35:00,
2013-02-26 04:40:00,33.1,32.1,29.57,NNW,346,0.0,12.0,96,0.03,,,0.07,0.00,VWS V14.01,2013-02-26 10:40:00,
2013-02-26 04:45:00,33.1,31.8,29.58,NNW,346,2.0,7.0,95,0.03,,,0.07,0.00,VWS V14.01,2013-02-26 10:45:00,
2013-02-26 04:50:00,33.1,31.8,29.58,NNW,346,2.0,7.0,95,0.04,,,0.08,0.00,VWS V14.01,2013-02-26 10:50:00,
2013-02-26 04:55:00,33.1,31.8,29.58,NNW,333,3.0,7.0,95,0.03,,,0.08,0.00,VWS V14.01,2013-02-26 10:55:00,
2013-02-26 05:00:00,33.2,31.9,29.58,North,355,11.0,15.0,95,0.03,,,0.08,0.00,VWS V14.01,2013-02-26 11:00:00,
2013-02-26 05:05:00,33.2,31.9,29.58,North,349,2.0,11.0,95,0.03,,,0.08,0.00,VWS V14.01,2013-02-26 11:05:00,
2013-02-26 05:10:00,33.1,31.6,29.58,NW,323,5.0,6.0,94,0.03,,,0.08,0.00,VWS V14.01,2013-02-26 11:10:00,
2013-02-26 05:15:00,32.8,31.3,29.59,North,350,1.0,9.0,94,0.03,,,0.09,0.00,VWS V14.01,2013-02-26 11:15:00,
2013-02-26 05:20:00,32.6,31.1,29.59,North,355,4.0,9.0,94,0.03,,,0.09,0.00,VWS V14.01,2013-02-26 11:20:00,
2013-02-26 05:25:00,32.6,31.1,29.59,NNW,327,2.0,7.0,94,0.03,,,0.09,0.00,VWS V14.01,2013-02-26 11:25:00,
2013-02-26 05:30:00,32.5,31.0,29.59,NNW,333,0.0,20.0,94,0.03,,,0.09,0.00,VWS V14.01,2013-02-26 11:30:00,
2013-02-26 05:35:00,32.6,31.1,29.59,NNW,333,1.0,9.0,94,0.04,,,0.10,0.00,VWS V14.01,2013-02-26 11:35:00,
2013-02-26 05:40:00,32.8,31.3,29.59,NNW,348,2.0,16.0,94,0.03,,,0.10,0.00,VWS V14.01,2013-02-26 11:40:00,
2013-02-26 05:45:00,32.8,31.3,29.59,NNW,346,4.0,14.0,94,0.03,,,0.10,0.00,VWS V14.01,2013-02-26 11:45:00,
2013-02-26 05:50:00,32.9,31.4,29.59,NNW,344,0.0,10.0,94,0.03,,,0.10,0.00,VWS V14.01,2013-02-26 11:50:00,
2013-02-26 05:55:00,33.1,31.6,29.59,North,351,1.0,11.0,94,0.02,,,0.10,0.00,VWS V14.01,2013-02-26 11:55:00,
2013-02-26 06:00:00,33.1,31.6,29.60,NNW,342,0.0,11.0,94,0.03,,,0.11,0.00,VWS V14.01,2013-02-26 12:00:00,
2013-02-26 06:05:00,33.2,31.7,29.60,NNW,347,5.0,10.0,94,0.03,,OVC017,0.11,0.00,VWS V14.01,2013-02-26 12:05:00,
2013-02-26 06:10:00,33.4,31.9,29.60,NNW,329,0.0,18.0,94,0.03,,OVC017,0.11,0.00,VWS V14.01,2013-02-26 12:10:00,
2013-02-26 06:15:00,33.5,31.7,29.60,North,355,3.0,19.0,93,0.03,,OVC017,0.11,0.00,VWS V14.01,2013-02-26 12:15:00,
2013-02-26 06:20:00,33.5,31.7,29.60,North,10,4.0,10.0,93,0.03,,OVC017,0.12,0.00,VWS V14.01,2013-02-26 12:20:00,
2013-02-26 06:25:00,33.7,31.9,29.60,North,355,0.0,10.0,93,0.03,,OVC017,0.12,0.00,VWS V14.01,2013-02-26 12:25:00,
2013-02-26 06:30:00,33.7,31.9,29.62,North,355,3.0,10.0,93,0.03,,OVC017,0.12,0.00,VWS V14.01,2013-02-26 12:30:00,
2013-02-26 06:35:00,33.8,31.7,29.62,North,355,1.0,12.0,92,0.03,,OVC017,0.12,0.00,VWS V14.01,2013-02-26 12:35:00,
2013-02-26 06:40:00,33.8,31.7,29.62,North,5,9.0,12.0,92,0.02,,OVC017,0.12,0.00,VWS V14.01,2013-02-26 12:40:00,
2013-02-26 06:45:00,34.0,31.9,29.62,NNW,339,1.0,15.0,92,0.02,,OVC017,0.12,0.00,VWS V14.01,2013-02-26 12:45:00,
2013-02-26 06:50:00,34.0,31.6,29.62,North,350,3.0,17.0,91,0.02,,OVC017,0.12,0.00,VWS V14.01,2013-02-26 12:50:00,
2013-02-26 06:55:00,34.0,31.6,29.62,North,355,4.0,12.0,91,0.03,,OVC017,0.13,0.00,VWS V14.01,2013-02-26 12:55:00,
2013-02-26 07:00:00,34.1,31.8,29.63,NNW,341,2.0,7.0,91,0.03,,OVC017,0.13,0.00,VWS V14.01,2013-02-26 13:00:00,
2013-02-26 07:05:00,34.1,31.5,29.63,North,349,0.0,12.0,90,0.02,,,0.13,0.00,VWS V14.01,2013-02-26 13:05:00,
2013-02-26 07:10:00,34.1,31.5,29.63,North,355,2.0,10.0,90,0.02,,,0.13,0.00,VWS V14.01,2013-02-26 13:10:00,
2013-02-26 07:15:00,34.3,31.7,29.64,NNW,342,5.0,7.0,90,0.02,,,0.13,5.75,VWS V14.01,2013-02-26 13:15:00,
2013-02-26 07:20:00,34.3,31.4,29.64,North,355,1.0,15.0,89,0.03,,,0.14,8.05,VWS V14.01,2013-02-26 13:20:00,
2013-02-26 07:25:00,34.3,31.4,29.64,NNW,343,0.0,10.0,89,0.02,,,0.14,8.05,VWS V14.01,2013-02-26 13:25:00,
2013-02-26 07:30:00,34.3,31.4,29.64,NNW,348,4.0,11.0,89,0.02,,,0.14,10.35,VWS V14.01,2013-02-26 13:30:00,
2013-02-26 07:35:00,34.4,31.5,29.64,NNW,342,0.0,11.0,89,0.02,,,0.14,10.35,VWS V14.01,2013-02-26 13:35:00,
2013-02-26 07:40:00,34.4,31.5,29.64,North,5,5.0,9.0,89,0.02,,,0.14,13.80,VWS V14.01,2013-02-26 13:40:00,
2013-02-26 07:45:00,34.4,31.2,29.64,North,350,3.0,18.0,88,0.02,,,0.14,20.70,VWS V14.01,2013-02-26 13:45:00,
2013-02-26 07:50:00,34.4,31.2,29.64,NNW,348,4.0,11.0,88,0.02,,,0.14,21.85,VWS V14.01,2013-02-26 13:50:00,
2013-02-26 07:55:00,34.4,31.2,29.64,NW,320,17.0,17.0,88,0.02,,,0.14,21.85,VWS V14.01,2013-02-26 13:55:00,
2013-02-26 08:00:00,34.4,31.2,29.65,North,355,3.0,15.0,88,0.01,,,0.14,16.10,VWS V14.01,2013-02-26 14:00:00,
2013-02-26 08:05:00,34.4,31.2,29.65,NNW,327,5.0,10.0,88,0.01,,OVC018,0.14,13.80,VWS V14.01,2013-02-26 14:05:00,
2013-02-26 08:10:00,34.5,31.3,29.65,NNW,338,2.0,11.0,88,0.01,,OVC018,0.14,12.65,VWS V14.01,2013-02-26 14:10:00,
2013-02-26 08:15:00,34.5,31.3,29.67,NNW,329,3.0,16.0,88,0.01,,OVC018,0.14,13.80,VWS V14.01,2013-02-26 14:15:00,
2013-02-26 08:20:00,34.5,31.3,29.67,NW,325,3.0,10.0,88,0.01,,OVC018,0.14,16.10,VWS V14.01,2013-02-26 14:20:00,
2013-02-26 08:25:00,34.5,31.3,29.67,NW,315,7.0,12.0,88,0.00,,OVC018,0.14,16.10,VWS V14.01,2013-02-26 14:25:00,
2013-02-26 08:30:00,34.7,31.5,29.68,NNW,333,0.0,15.0,88,0.00,,OVC018,0.14,18.40,VWS V14.01,2013-02-26 14:30:00,
2013-02-26 08:35:00,34.7,31.5,29.68,NW,325,3.0,6.0,88,0.00,,OVC018,0.14,18.40,VWS V14.01,2013-02-26 14:35:00,
2013-02-26 08:40:00,34.7,31.5,29.68,NNW,340,2.0,14.0,88,0.01,,OVC018,0.15,18.40,VWS V14.01,2013-02-26 14:40:00,
2013-02-26 08:45:00,34.7,31.8,29.69,NW,311,6.0,7.0,89,0.01,,OVC018,0.15,21.85,VWS V14.01,2013-02-26 14:45:00,
2013-02-26 08:50:00,34.7,31.8,29.69,NNW,328,3.0,6.0,89,0.01,,OVC018,0.15,20.70,VWS V14.01,2013-02-26 14:50:00,
2013-02-26 08:55:00,34.7,31.8,29.69,North,350,0.0,5.0,89,0.01,,OVC018,0.15,28.75,VWS V14.01,2013-02-26 14:55:00,
2013-02-26 09:00:00,34.7,31.8,29.70,North,351,4.0,11.0,89,0.01,,OVC018,0.15,29.90,VWS V14.01,2013-02-26 15:00:00,
2013-02-26 09:05:00,34.7,31.8,29.70,NW,316,0.0,6.0,89,0.01,,,0.15,36.80,VWS V14.01,2013-02-26 15:05:00,
2013-02-26 09:10:00,34.7,31.8,29.70,NNW,331,0.0,5.0,89,0.01,,,0.15,42.55,VWS V14.01,2013-02-26 15:10:00,
2013-02-26 09:15:00,34.7,31.8,29.71,NE,35,1.0,17.0,89,0.01,,,0.15,40.25,VWS V14.01,2013-02-26 15:15:00,
2013-02-26 09:20:00,34.8,31.9,29.71,North,5,2.0,4.0,89,0.01,,,0.15,44.85,VWS V14.01,2013-02-26 15:20:00,
2013-02-26 09:25:00,34.8,31.9,29.71,North,355,2.0,15.0,89,0.01,,,0.15,42.55,VWS V14.01,2013-02-26 15:25:00,
2013-02-26 09:30:00,35.0,32.1,29.72,NW,321,0.0,3.0,89,0.01,,,0.15,40.25,VWS V14.01,2013-02-26 15:30:00,
2013-02-26 09:35:00,35.0,32.1,29.72,NW,313,2.0,11.0,89,0.01,,,0.15,40.25,VWS V14.01,2013-02-26 15:35:00,
2013-02-26 09:40:00,35.0,31.8,29.72,North,360,2.0,7.0,88,0.01,,,0.15,60.95,VWS V14.01,2013-02-26 15:40:00,
2013-02-26 09:45:00,35.1,31.9,29.72,NNE,13,6.0,6.0,88,0.00,,,0.15,77.05,VWS V14.01,2013-02-26 15:45:00,
2013-02-26 09:50:00,35.1,31.9,29.72,NNW,345,2.0,7.0,88,0.00,,,0.15,54.05,VWS V14.01,2013-02-26 15:50:00,
2013-02-26 09:55:00,35.3,31.8,29.72,NNW,331,0.0,14.0,87,0.00,,,0.15,62.10,VWS V14.01,2013-02-26 15:55:00,
2013-02-26 10:00:00,35.4,31.9,29.73,NNW,338,0.0,6.0,87,0.00,,,0.15,56.35,VWS V14.01,2013-02-26 16:00:00,
2013-02-26 10:05:00,35.5,32.0,29.73,NNW,338,0.0,2.0,87,0.00,,,0.15,52.90,VWS V14.01,2013-02-26 16:05:00,
2013-02-26 10:10:00,35.5,31.7,29.73,NW,322,3.0,7.0,86,0.00,,,0.15,71.30,VWS V14.01,2013-02-26 16:10:00,
2013-02-26 10:15:00,35.5,31.5,29.73,North,355,0.0,15.0,85,0.00,,,0.15,56.35,VWS V14.01,2013-02-26 16:15:00,
2013-02-26 10:20:00,35.7,31.6,29.73,NW,315,0.0,7.0,85,0.00,,,0.15,52.90,VWS V14.01,2013-02-26 16:20:00,
2013-02-26 10:25:00,35.7,31.6,29.73,NW,321,0.0,6.0,85,0.00,,,0.15,44.85,VWS V14.01,2013-02-26 16:25:00,
2013-02-26 10:30:00,35.7,31.4,29.75,WNW,294,0.0,9.0,84,0.00,,,0.15,44.85,VWS V14.01,2013-02-26 16:30:00,
2013-02-26 10:35:00,35.7,31.4,29.75,NW,323,2.0,15.0,84,0.00,,,0.15,62.10,VWS V14.01,2013-02-26 16:35:00,
2013-02-26 10:40:00,35.7,31.4,29.75,North,355,2.0,6.0,84,0.00,,,0.15,80.50,VWS V14.01,2013-02-26 16:40:00,
2013-02-26 10:45:00,35.7,31.0,29.75,NNW,333,4.0,5.0,83,0.00,,,0.15,106.95,VWS V14.01,2013-02-26 16:45:00,
2013-02-26 10:50:00,35.8,31.1,29.75,NW,321,2.0,12.0,83,0.00,,,0.15,111.55,VWS V14.01,2013-02-26 16:50:00,
2013-02-26 10:55:00,36.0,31.0,29.75,NNW,336,4.0,15.0,82,0.00,,,0.15,115.00,VWS V14.01,2013-02-26 16:55:00,
2013-02-26 11:00:00,36.0,30.8,29.75,NNW,329,1.0,16.0,81,0.00,,,0.15,127.65,VWS V14.01,2013-02-26 17:00:00,
2013-02-26 11:05:00,36.0,30.8,29.75,North,355,0.0,15.0,81,0.00,,OVC023,0.15,163.30,VWS V14.01,2013-02-26 17:05:00,
2013-02-26 11:10:00,36.1,30.8,29.75,NNW,346,1.0,16.0,81,0.00,,OVC023,0.15,184.00,VWS V14.01,2013-02-26 17:10:00,
2013-02-26 11:15:00,36.4,31.1,29.76,NNW,327,3.0,9.0,81,0.00,,OVC023,0.15,189.75,VWS V14.01,2013-02-26 17:15:00,
2013-02-26 11:20:00,36.5,31.2,29.76,NW,316,3.0,13.0,81,0.00,,OVC023,0.15,131.10,VWS V14.01,2013-02-26 17:20:00,
2013-02-26 11:25:00,36.5,31.2,29.76,NNW,333,4.0,12.0,81,0.00,,OVC023,0.15,125.35,VWS V14.01,2013-02-26 17:25:00,
2013-02-26 11:30:00,36.4,31.1,29.77,NW,309,6.0,13.0,81,0.00,,OVC023,0.15,123.05,VWS V14.01,2013-02-26 17:30:00,
2013-02-26 11:35:00,36.4,30.8,29.77,NW,306,11.0,17.0,80,0.00,,OVC023,0.15,125.35,VWS V14.01,2013-02-26 17:35:00,
2013-02-26 11:40:00,36.5,31.2,29.77,NNW,341,0.0,7.0,81,0.00,,OVC023,0.15,162.15,VWS V14.01,2013-02-26 17:40:00,
2013-02-26 11:45:00,36.5,30.9,29.77,North,360,0.0,15.0,80,0.00,,OVC023,0.15,187.45,VWS V14.01,2013-02-26 17:45:00,
2013-02-26 11:50:00,36.7,31.1,29.77,NW,320,0.0,10.0,80,0.00,,OVC023,0.15,171.35,VWS V14.01,2013-02-26 17:50:00,
2013-02-26 11:55:00,36.7,30.8,29.77,NW,316,0.0,16.0,79,0.00,,OVC023,0.15,218.50,VWS V14.01,2013-02-26 17:55:00,
2013-02-26 12:00:00,36.8,31.2,29.77,North,355,9.0,14.0,80,0.00,,OVC023,0.15,205.85,VWS V14.01,2013-02-26 18:00:00,
2013-02-26 12:05:00,37.1,31.5,29.77,NNW,336,8.0,12.0,80,0.00,,OVC025,0.15,205.85,VWS V14.01,2013-02-26 18:05:00,
2013-02-26 12:10:00,37.3,31.4,29.77,NNW,341,13.0,17.0,79,0.00,,OVC025,0.15,280.60,VWS V14.01,2013-02-26 18:10:00,
2013-02-26 12:15:00,37.6,31.7,29.77,WNW,300,9.0,12.0,79,0.00,,OVC025,0.15,204.70,VWS V14.01,2013-02-26 18:15:00,
2013-02-26 12:20:00,37.8,31.9,29.77,NNW,348,11.0,13.0,79,0.00,,OVC025,0.15,218.50,VWS V14.01,2013-02-26 18:20:00,
2013-02-26 12:25:00,37.8,31.6,29.77,North,5,7.0,12.0,78,0.00,,OVC025,0.15,228.85,VWS V14.01,2013-02-26 18:25:00,
2013-02-26 12:30:00,37.8,31.2,29.77,NNW,347,7.0,16.0,77,0.00,,OVC025,0.15,218.50,VWS V14.01,2013-02-26 18:30:00,
2013-02-26 12:35:00,37.8,31.2,29.77,NNW,330,9.0,15.0,77,0.00,,OVC025,0.15,146.05,VWS V14.01,2013-02-26 18:35:00,
2013-02-26 12:40:00,37.8,31.2,29.77,NNW,333,4.0,15.0,77,0.00,,OVC025,0.15,173.65,VWS V14.01,2013-02-26 18:40:00,
2013-02-26 12:45:00,37.8,31.2,29.78,NW,322,13.0,15.0,77,0.00,,OVC025,0.15,186.30,VWS V14.01,2013-02-26 18:45:00,
2013-02-26 12:50:00,37.8,31.2,29.78,NNW,348,4.0,13.0,77,0.00,,OVC025,0.15,147.20,VWS V14.01,2013-02-26 18:50:00,
2013-02-26 12:55:00,38.0,31.1,29.78,NNW,338,3.0,13.0,76,0.00,,OVC025,0.15,133.40,VWS V14.01,2013-02-26 18:55:00,
2013-02-26 13:00:00,38.1,31.5,29.78,North,351,7.0,10.0,77,0.00,,OVC025,0.15,119.60,VWS V14.01,2013-02-26 19:00:00,
2013-02-26 13:05:00,38.1,31.2,29.78,NW,324,11.0,14.0,76,0.00,,OVC050,0.15,120.75,VWS V14.01,2013-02-26 19:05:00,
2013-02-26 13:10:00,38.1,31.2,29.78,North,350,6.0,14.0,76,0.00,,OVC050,0.15,155.25,VWS V14.01,2013-02-26 19:10:00,
2013-02-26 13:15:00,38.1,31.2,29.78,NNW,342,5.0,13.0,76,0.00,,OVC050,0.15,218.50,VWS V14.01,2013-02-26 19:15:00,
2013-02-26 13:20:00,38.3,31.4,29.78,North,360,6.0,13.0,76,0.00,,OVC050,0.15,232.30,VWS V14.01,2013-02-26 19:20:00,
2013-02-26 13:25:00,38.6,31.7,29.78,North,11,4.0,13.0,76,0.00,,OVC050,0.15,285.20,VWS V14.01,2013-02-26 19:25:00,
2013-02-26 13:30:00,38.7,31.5,29.78,North,350,5.0,12.0,75,0.00,,OVC050,0.15,254.15,VWS V14.01,2013-02-26 19:30:00,
2013-02-26 13:35:00,38.8,31.6,29.78,NNW,344,5.0,13.0,75,0.00,,OVC050,0.15,282.90,VWS V14.01,2013-02-26 19:35:00,
2013-02-26 13:40:00,38.8,31.2,29.78,NNE,21,7.0,14.0,74,0.00,,OVC050,0.15,256.45,VWS V14.01,2013-02-26 19:40:00,
2013-02-26 13:45:00,38.8,31.6,29.78,North,9,11.0,15.0,75,0.00,,OVC050,0.15,279.45,VWS V14.01,2013-02-26 19:45:00,
2013-02-26 13:50:00,38.7,31.1,29.78,NNW,347,5.0,16.0,74,0.00,,OVC050,0.15,272.55,VWS V14.01,2013-02-26 19:50:00,
2013-02-26 13:55:00,38.7,31.1,29.78,North,355,9.0,14.0,74,0.00,,OVC050,0.15,317.40,VWS V14.01,2013-02-26 19:55:00,
2013-02-26 14:00:00,39.0,31.4,29.77,NNW,348,6.0,11.0,74,0.00,,OVC050,0.15,365.70,VWS V14.01,2013-02-26 20:00:00,
2013-02-26 14:05:00,39.1,31.5,29.77,North,355,9.0,15.0,74,0.00,,OVC025,0.15,379.50,VWS V14.01,2013-02-26 20:05:00,
2013-02-26 14:10:00,39.7,31.8,29.77,NNW,330,11.0,12.0,73,0.00,,OVC025,0.15,282.90,VWS V14.01,2013-02-26 20:10:00,
2013-02-26 14:15:00,39.8,31.9,29.78,NNW,330,7.0,13.0,73,0.00,,OVC025,0.15,309.35,VWS V14.01,2013-02-26 20:15:00,
2013-02-26 14:20:00,39.8,31.5,29.78,North,11,5.0,14.0,72,0.00,,OVC025,0.15,240.35,VWS V14.01,2013-02-26 20:20:00,
2013-02-26 14:25:00,39.8,31.9,29.78,NNW,344,6.0,13.0,73,0.00,,OVC025,0.15,184.00,VWS V14.01,2013-02-26 20:25:00,
2013-02-26 14:30:00,39.8,31.5,29.78,North,350,7.0,13.0,72,0.00,,OVC025,0.15,359.95,VWS V14.01,2013-02-26 20:30:00,
2013-02-26 14:35:00,39.8,31.5,29.78,NNW,338,5.0,7.0,72,0.00,,OVC025,0.15,202.40,VWS V14.01,2013-02-26 20:35:00,
2013-02-26 14:40:00,40.1,32.2,29.78,WNW,294,5.0,12.0,73,0.00,,OVC025,0.15,299.00,VWS V14.01,2013-02-26 20:40:00,
2013-02-26 14:45:00,40.1,31.5,29.78,NW,321,5.0,10.0,71,0.00,,OVC025,0.15,196.65,VWS V14.01,2013-02-26 20:45:00,
2013-02-26 14:50:00,40.3,32.3,29.78,NW,317,0.0,10.0,73,0.00,,OVC025,0.15,155.25,VWS V14.01,2013-02-26 20:50:00,
2013-02-26 14:55:00,40.4,31.8,29.78,NW,319,5.0,5.0,71,0.00,,OVC025,0.15,135.70,VWS V14.01,2013-02-26 20:55:00,
2013-02-26 15:00:00,40.4,32.1,29.80,NW,307,0.0,6.0,72,0.00,,OVC025,0.15,129.95,VWS V14.01,2013-02-26 21:00:00,
2013-02-26 15:05:00,40.3,31.7,29.80,West,280,1.0,11.0,71,0.00,,OVC023,0.15,112.70,VWS V14.01,2013-02-26 21:05:00,
2013-02-26 15:10:00,40.4,32.1,29.80,WNW,299,0.0,0.0,72,0.00,,OVC023,0.15,101.20,VWS V14.01,2013-02-26 21:10:00,
2013-02-26 15:15:00,40.4,32.1,29.80,NW,307,0.0,0.0,72,0.00,,OVC023,0.15,95.45,VWS V14.01,2013-02-26 21:15:00,
2013-02-26 15:20:00,40.4,32.1,29.80,NW,321,0.0,0.0,72,0.00,,OVC023,0.15,112.70,VWS V14.01,2013-02-26 21:20:00,
2013-02-26 15:25:00,40.4,32.1,29.80,WNW,301,4.0,11.0,72,0.00,,OVC023,0.15,95.45,VWS V14.01,2013-02-26 21:25:00,
2013-02-26 15:30:00,40.4,32.1,29.80,WNW,296,5.0,6.0,72,0.00,,OVC023,0.15,103.50,VWS V14.01,2013-02-26 21:30:00,
2013-02-26 15:35:00,40.4,32.1,29.80,NW,318,12.0,16.0,72,0.00,,OVC023,0.15,109.25,VWS V14.01,2013-02-26 21:35:00,
2013-02-26 15:40:00,40.4,31.8,29.80,NW,317,5.0,13.0,71,0.00,,OVC023,0.15,82.80,VWS V14.01,2013-02-26 21:40:00,
2013-02-26 15:45:00,40.4,32.1,29.81,NNW,338,0.0,1.0,72,0.00,,OVC023,0.15,85.10,VWS V14.01,2013-02-26 21:45:00,
2013-02-26 15:50:00,40.4,32.1,29.81,WNW,294,0.0,14.0,72,0.00,,OVC023,0.15,74.75,VWS V14.01,2013-02-26 21:50:00,
2013-02-26 15:55:00,40.4,31.8,29.81,NNW,333,10.0,13.0,71,0.00,,OVC023,0.15,56.35,VWS V14.01,2013-02-26 21:55:00,
2013-02-26 16:00:00,40.4,31.8,29.82,NW,311,4.0,9.0,71,0.00,,OVC023,0.15,56.35,VWS V14.01,2013-02-26 22:00:00,
2013-02-26 16:05:00,40.4,32.1,29.82,WNW,288,6.0,9.0,72,0.00,,OVC034,0.15,56.35,VWS V14.01,2013-02-26 22:05:00,
2013-02-26 16:10:00,40.3,32.0,29.82,WNW,292,11.0,13.0,72,0.00,,OVC034,0.15,54.05,VWS V14.01,2013-02-26 22:10:00,
2013-02-26 16:15:00,40.1,31.8,29.83,NW,322,5.0,15.0,72,0.00,,OVC034,0.15,54.05,VWS V14.01,2013-02-26 22:15:00,
2013-02-26 16:20:00,40.1,31.8,29.83,NNW,327,0.0,11.0,72,0.00,,OVC034,0.15,52.90,VWS V14.01,2013-02-26 22:20:00,
2013-02-26 16:25:00,40.0,32.1,29.83,NNW,336,0.0,12.0,73,0.00,,OVC034,0.15,62.10,VWS V14.01,2013-02-26 22:25:00,
2013-02-26 16:30:00,40.0,32.1,29.83,NNW,328,4.0,11.0,73,0.00,,OVC034,0.15,56.35,VWS V14.01,2013-02-26 22:30:00,
2013-02-26 16:35:00,40.0,32.1,29.83,NW,313,0.0,7.0,73,0.00,,OVC034,0.15,52.90,VWS V14.01,2013-02-26 22:35:00,
2013-02-26 16:40:00,40.0,32.1,29.83,WNW,300,0.0,11.0,73,0.00,,OVC034,0.15,69.00,VWS V14.01,2013-02-26 22:40:00,
2013-02-26 16:45:00,40.0,31.7,29.83,NW,321,5.0,10.0,72,0.00,,OVC034,0.15,64.40,VWS V14.01,2013-02-26 22:45:00,
2013-02-26 16:50:00,40.0,31.7,29.83,NW,317,6.0,14.0,72,0.00,,OVC034,0.15,54.05,VWS V14.01,2013-02-26 22:50:00,
2013-02-26 16:55:00,39.8,31.5,29.83,NW,315,5.0,14.0,72,0.00,,OVC034,0.15,79.35,VWS V14.01,2013-02-26 22:55:00,
2013-02-26 17:00:00,39.8,31.2,29.83,NW,325,5.0,14.0,71,0.00,,OVC034,0.15,66.70,VWS V14.01,2013-02-26 23:00:00,
2013-02-26 17:05:00,39.8,31.5,29.83,NNW,331,0.0,9.0,72,0.00,,OVC030,0.15,62.10,VWS V14.01,2013-02-26 23:05:00,
2013-02-26 17:10:00,39.8,31.5,29.83,NNW,327,0.0,7.0,72,0.00,,OVC030,0.15,46.00,VWS V14.01,2013-02-26 23:10:00,
2013-02-26 17:15:00,39.8,31.5,29.84,NW,320,0.0,1.0,72,0.00,,OVC030,0.15,37.95,VWS V14.01,2013-02-26 23:15:00,
2013-02-26 17:20:00,39.8,31.5,29.84,NW,324,5.0,12.0,72,0.00,,OVC030,0.15,37.95,VWS V14.01,2013-02-26 23:20:00,
2013-02-26 17:25:00,39.7,31.4,29.84,NNW,348,6.0,11.0,72,0.00,,OVC030,0.15,37.95,VWS V14.01,2013-02-26 23:25:00,
2013-02-26 17:30:00,39.6,31.0,29.84,NNW,328,6.0,13.0,71,0.00,,OVC030,0.15,28.75,VWS V14.01,2013-02-26 23:30:00,
2013-02-26 17:35:00,39.6,31.3,29.84,NNW,336,0.0,11.0,72,0.00,,OVC030,0.15,21.85,VWS V14.01,2013-02-26 23:35:00,
2013-02-26 17:40:00,39.6,31.3,29.84,NW,326,0.0,12.0,72,0.00,,OVC030,0.15,20.70,VWS V14.01,2013-02-26 23:40:00,
2013-02-26 17:45:00,39.6,31.3,29.85,NW,311,0.0,12.0,72,0.00,,OVC030,0.15,18.40,VWS V14.01,2013-02-26 23:45:00,
2013-02-26 17:50:00,39.4,31.1,29.85,North,351,2.0,11.0,72,0.00,,OVC030,0.15,18.40,VWS V14.01,2013-02-26 23:50:00,
2013-02-26 17:55:00,39.3,30.7,29.85,NNW,336,2.0,12.0,71,0.00,,OVC030,0.15,13.80,VWS V14.01,2013-02-26 23:55:00,
2013-02-26 18:00:00,39.1,30.5,29.85,NNW,337,3.0,9.0,71,0.00,,OVC030,0.15,20.70,VWS V14.01,2013-02-27 00:00:00,
2013-02-26 18:05:00,39.1,30.5,29.85,NNW,336,0.0,13.0,71,0.00,,OVC032,0.15,10.35,VWS V14.01,2013-02-27 00:05:00,
2013-02-26 18:10:00,39.1,30.5,29.85,NNW,336,0.0,0.0,71,0.00,,OVC032,0.15,0.00,VWS V14.01,2013-02-27 00:10:00,
2013-02-26 18:15:00,39.0,30.8,29.86,NNW,338,0.0,0.0,72,0.00,,OVC032,0.15,0.00,VWS V14.01,2013-02-27 00:15:00,
2013-02-26 18:20:00,39.0,30.8,29.86,NNW,338,0.0,0.0,72,0.00,,OVC032,0.15,0.00,VWS V14.01,2013-02-27 00:20:00,
2013-02-26 18:25:00,39.0,30.8,29.86,North,360,0.0,0.0,72,0.00,,OVC032,0.15,0.00,VWS V14.01,2013-02-27 00:25:00,
2013-02-26 18:30:00,38.8,30.6,29.87,NNW,339,0.0,0.0,72,0.00,,OVC032,0.15,0.00,VWS V14.01,2013-02-27 00:30:00,
2013-02-26 18:35:00,38.8,30.6,29.87,North,360,0.0,0.0,72,0.00,,OVC032,0.15,0.00,VWS V14.01,2013-02-27 00:35:00,
2013-02-26 18:40:00,38.7,30.5,29.87,NNW,340,0.0,0.0,72,0.00,,OVC032,0.15,0.00,VWS V14.01,2013-02-27 00:40:00,
2013-02-26 18:45:00,38.7,30.5,29.88,NW,321,0.0,0.0,72,0.00,,OVC032,0.15,0.00,VWS V14.01,2013-02-27 00:45:00,
2013-02-26 18:50:00,38.7,30.5,29.88,NW,323,0.0,0.0,72,0.00,,OVC032,0.15,0.00,VWS V14.01,2013-02-27 00:50:00,
2013-02-26 18:55:00,38.7,30.5,29.88,NW,322,0.0,0.0,72,0.00,,OVC032,0.15,0.00,VWS V14.01,2013-02-27 00:55:00,
2013-02-26 19:00:00,38.7,30.8,29.88,NW,323,0.0,0.0,73,0.00,,OVC032,0.15,0.00,VWS V14.01,2013-02-27 01:00:00,
2013-02-26 19:05:00,38.7,30.8,29.88,NW,324,0.0,0.0,73,0.00,,OVC032,0.15,0.00,VWS V14.01,2013-02-27 01:05:00,
2013-02-26 19:10:00,38.6,31.0,29.88,NW,317,0.0,0.0,74,0.00,,OVC032,0.15,0.00,VWS V14.01,2013-02-27 01:10:00,
2013-02-26 19:15:00,38.4,30.9,29.89,NW,322,0.0,0.0,74,0.00,,OVC032,0.15,0.00,VWS V14.01,2013-02-27 01:15:00,
2013-02-26 19:19:00,38.4,30.9,29.89,NW,315,0.0,0.0,74,0.00,,OVC032,0.15,0.00,VWS V14.01,2013-02-27 01:19:00,
2013-02-26 19:24:00,38.3,30.8,29.89,NW,320,0.0,0.0,74,0.00,,OVC032,0.15,0.00,VWS V14.01,2013-02-27 01:24:00,
2013-02-26 19:30:00,38.3,30.8,29.90,NW,306,0.0,0.0,74,0.00,,OVC032,0.15,0.00,VWS V14.01,2013-02-27 01:30:00,
2013-02-26 19:34:00,38.1,30.6,29.90,NNW,332,0.0,0.0,74,0.00,,OVC032,0.15,0.00,VWS V14.01,2013-02-27 01:34:00,
2013-02-26 19:39:00,38.1,30.6,29.90,WNW,298,0.0,0.0,74,0.00,,OVC032,0.15,0.00,VWS V14.01,2013-02-27 01:39:00,
2013-02-26 19:44:00,38.0,30.5,29.91,NW,309,0.0,0.0,74,0.00,,OVC032,0.15,0.00,VWS V14.01,2013-02-27 01:44:00,
2013-02-26 19:49:00,38.0,30.5,29.91,WNW,297,0.0,0.0,74,0.00,,OVC032,0.15,0.00,VWS V14.01,2013-02-27 01:49:00,
2013-02-26 19:54:00,37.8,30.3,29.91,NW,315,0.0,0.0,74,0.00,,OVC032,0.15,0.00,VWS V14.01,2013-02-27 01:54:00,
2013-02-26 19:59:00,37.8,30.3,29.92,NW,315,0.0,0.0,74,0.00,,OVC032,0.15,0.00,VWS V14.01,2013-02-27 01:59:00,
2013-02-26 20:04:00,37.7,30.2,29.92,NW,323,0.0,0.0,74,0.00,,OVC028,0.15,0.00,VWS V14.01,2013-02-27 02:04:00,
2013-02-26 20:09:00,37.7,30.5,29.92,NW,319,0.0,0.0,75,0.00,,OVC028,0.15,0.00,VWS V14.01,2013-02-27 02:09:00,
2013-02-26 20:15:00,37.7,30.5,29.93,NW,326,0.0,0.0,75,0.00,,OVC028,0.15,0.00,VWS V14.01,2013-02-27 02:15:00,
2013-02-26 20:20:00,37.7,30.2,29.93,NNW,330,0.0,0.0,74,0.00,,OVC028,0.15,0.00,VWS V14.01,2013-02-27 02:20:00,
2013-02-26 20:25:00,37.6,30.1,29.93,NNW,344,0.0,0.0,74,0.00,,OVC028,0.15,0.00,VWS V14.01,2013-02-27 02:25:00,
2013-02-26 20:30:00,37.6,30.1,29.94,NNW,327,0.0,0.0,74,0.00,,OVC028,0.15,0.00,VWS V14.01,2013-02-27 02:30:00,
2013-02-26 20:35:00,37.6,29.7,29.94,NNW,327,0.0,0.0,73,0.00,,OVC028,0.15,0.00,VWS V14.01,2013-02-27 02:35:00,
2013-02-26 20:40:00,37.6,29.7,29.94,NW,317,0.0,0.0,73,0.00,,OVC028,0.15,0.00,VWS V14.01,2013-02-27 02:40:00,
2013-02-26 20:45:00,37.4,29.5,29.94,NW,323,0.0,0.0,73,0.00,,OVC028,0.15,0.00,VWS V14.01,2013-02-27 02:45:00,
2013-02-26 20:50:00,37.4,29.5,29.94,NW,323,0.0,0.0,73,0.00,,OVC028,0.15,0.00,VWS V14.01,2013-02-27 02:50:00,
2013-02-26 20:55:00,37.4,29.5,29.94,NW,316,0.0,0.0,73,0.00,,OVC028,0.15,0.00,VWS V14.01,2013-02-27 02:55:00,
2013-02-26 21:00:00,37.3,29.5,29.95,NW,313,0.0,0.0,73,0.00,,OVC028,0.15,0.00,VWS V14.01,2013-02-27 03:00:00,
2013-02-26 21:05:00,37.3,29.5,29.95,NNW,333,0.0,0.0,73,0.00,,BKN030,0.15,0.00,VWS V14.01,2013-02-27 03:05:00,
2013-02-26 21:10:00,37.1,29.3,29.95,NNW,340,0.0,0.0,73,0.00,,BKN030,0.15,0.00,VWS V14.01,2013-02-27 03:10:00,
2013-02-26 21:15:00,37.0,29.5,29.95,NNW,336,0.0,0.0,74,0.00,,BKN030,0.15,0.00,VWS V14.01,2013-02-27 03:15:00,
2013-02-26 21:20:00,36.8,29.3,29.95,NNW,333,0.0,0.0,74,0.00,,BKN030,0.15,0.00,VWS V14.01,2013-02-27 03:20:00,
2013-02-26 21:25:00,36.8,29.6,29.95,NW,315,0.0,0.0,75,0.00,,BKN030,0.15,0.00,VWS V14.01,2013-02-27 03:25:00,
2013-02-26 21:30:00,36.7,29.5,29.95,NW,319,0.0,0.0,75,0.00,,BKN030,0.15,0.00,VWS V14.01,2013-02-27 03:30:00,
2013-02-26 21:35:00,36.7,29.5,29.95,NW,320,0.0,0.0,75,0.00,,BKN030,0.15,0.00,VWS V14.01,2013-02-27 03:35:00,
2013-02-26 21:40:00,36.5,29.3,29.95,NW,325,0.0,0.0,75,0.00,,BKN030,0.15,0.00,VWS V14.01,2013-02-27 03:40:00,
2013-02-26 21:45:00,36.5,29.3,29.95,NW,325,0.0,0.0,75,0.00,,BKN030,0.15,0.00,VWS V14.01,2013-02-27 03:45:00,
2013-02-26 21:50:00,36.4,29.2,29.95,NW,325,0.0,0.0,75,0.00,,BKN030,0.15,0.00,VWS V14.01,2013-02-27 03:50:00,
2013-02-26 21:55:00,36.3,29.1,29.95,NW,326,0.0,0.0,75,0.00,,BKN030,0.15,0.00,VWS V14.01,2013-02-27 03:55:00,
2013-02-26 22:00:00,36.1,29.3,29.94,NW,326,0.0,0.0,76,0.00,,BKN030,0.15,0.00,VWS V14.01,2013-02-27 04:00:00,
2013-02-26 22:05:00,36.0,29.2,29.94,NW,326,0.0,0.0,76,0.00,,BKN030,0.15,0.00,VWS V14.01,2013-02-27 04:05:00,
2013-02-26 22:10:00,35.8,29.0,29.94,NNW,330,0.0,0.0,76,0.00,,BKN030,0.15,0.00,VWS V14.01,2013-02-27 04:10:00,
2013-02-26 22:15:00,35.7,28.9,29.92,NNW,331,0.0,0.0,76,0.00,,BKN030,0.15,0.00,VWS V14.01,2013-02-27 04:15:00,
2013-02-26 22:20:00,35.5,28.7,29.92,NNW,331,0.0,0.0,76,0.00,,BKN030,0.15,0.00,VWS V14.01,2013-02-27 04:20:00,
2013-02-26 22:25:00,35.4,28.6,29.92,NNW,331,0.0,0.0,76,0.00,,BKN030,0.15,0.00,VWS V14.01,2013-02-27 04:25:00,
2013-02-26 22:30:00,35.3,28.5,29.94,NNW,331,0.0,0.0,76,0.00,,BKN030,0.15,0.00,VWS V14.01,2013-02-27 04:30:00,
2013-02-26 22:35:00,35.1,28.6,29.94,NNW,331,0.0,0.0,77,0.00,,BKN030,0.15,0.00,VWS V14.01,2013-02-27 04:35:00,
2013-02-26 22:40:00,35.0,28.5,29.94,NNW,331,0.0,0.0,77,0.00,,BKN030,0.15,0.00,VWS V14.01,2013-02-27 04:40:00,
2013-02-26 22:45:00,34.8,28.3,29.94,NNW,331,0.0,0.0,77,0.00,,BKN030,0.15,0.00,VWS V14.01,2013-02-27 04:45:00,
2013-02-26 22:50:00,34.7,28.2,29.94,NNW,331,0.0,0.0,77,0.00,,BKN030,0.15,0.00,VWS V14.01,2013-02-27 04:50:00,
2013-02-26 22:55:00,34.5,28.0,29.94,NNW,331,0.0,0.0,77,0.00,,BKN030,0.15,0.00,VWS V14.01,2013-02-27 04:55:00,
2013-02-26 23:00:00,34.4,28.3,29.96,NNW,331,0.0,0.0,78,0.00,,BKN030,0.15,0.00,VWS V14.01,2013-02-27 05:00:00,
2013-02-26 23:05:00,34.1,28.0,29.96,NNW,331,0.0,0.0,78,0.00,,CLR,0.15,0.00,VWS V14.01,2013-02-27 05:05:00,
2013-02-26 23:10:00,34.0,28.2,29.96,NNW,330,0.0,0.0,79,0.00,,CLR,0.15,0.00,VWS V14.01,2013-02-27 05:10:00,
2013-02-26 23:15:00,34.0,28.2,29.95,NNW,330,0.0,0.0,79,0.00,,CLR,0.15,0.00,VWS V14.01,2013-02-27 05:15:00,
2013-02-26 23:20:00,33.8,28.3,29.95,NNW,330,0.0,0.0,80,0.00,,CLR,0.15,0.00,VWS V14.01,2013-02-27 05:20:00,
2013-02-26 23:25:00,33.8,28.3,29.95,NNW,330,0.0,0.0,80,0.00,,CLR,0.15,0.00,VWS V14.01,2013-02-27 05:25:00,
2013-02-26 23:30:00,33.7,28.2,29.95,NNW,330,0.0,0.0,80,0.00,,CLR,0.15,0.00,VWS V14.01,2013-02-27 05:30:00,
2013-02-26 23:35:00,33.7,28.5,29.95,NNW,330,0.0,0.0,81,0.00,,CLR,0.15,0.00,VWS V14.01,2013-02-27 05:35:00,
2013-02-26 23:40:00,33.5,28.3,29.95,NNW,330,0.0,0.0,81,0.00,,CLR,0.15,0.00,VWS V14.01,2013-02-27 05:40:00,
2013-02-26 23:45:00,33.5,28.3,29.95,NNW,330,0.0,0.0,81,0.00,,CLR,0.15,0.00,VWS V14.01,2013-02-27 05:45:00,
2013-02-26 23:50:00,33.4,28.2,29.95,NNW,330,0.0,0.0,81,0.00,,CLR,0.15,0.00,VWS V14.01,2013-02-27 05:50:00,
2013-02-26 23:55:00,33.2,28.0,29.95,NNW,330,0.0,0.0,81,0.00,,CLR,0.15,0.00,VWS V14.01,2013-02-27 05:55:00,